Terminal Aerodrome Forecast
Issued by NWS

Home | Current Version | Previous Version | Text Only | Print | Product List | Glossary On
Versions: 1 2 3 4 5 6 7 8 9 10 11 12 13
000
FTUS43 KIND 021725
TAFLAF
TAF
KLAF 021725Z 0218/0318 23009KT P6SM SCT040 SCT250
     FM030400 24008KT P6SM VCTS BKN040CB
     FM031100 28007KT P6SM SCT040 BKN100
     FM031500 31009KT P6SM SCT050=

USA.gov is the U.S. government's official web portal to all federal, state and local government web resources and services.